Главная страница
METAR-TAF:

METAR-TAF

Аэропорты :

Международный аэропорт Кишинёва

Кишинёв, Молдавия

широта: 46-55-40N, долгота: 028-55-51E, высота над уровнем моря: 122 м

Текущие метеонаблюдения

Эта сводка был подготовлена 24 минут назад, в 02:30 UTC
Ветер 3 Узел от северно-северо-западный
Температура 18°C
Влажность 88%
Давление 1018 hPa
Видимость 10 км и более
Нет облачности ниже 1500 м, и нет кучево-дождевой облачности

METAR: LUKK 210230Z 33003KT CAVOK 18/16 Q1018 R26/D NOSIG

Время: 05:54 (02:54 UTC)

Прогноз

Эта сводка был подготовлена 3 часа и 34 минут назад, в 23:20 UTC
Прогноз действительный с 21-го 00 UTC до 21-го 24 UTC
Ветер 6 Узел от северо-северо-восточный
Видимость 10 км и более
Нет облачности ниже 1500 м, и нет кучево-дождевой облачности
изменения
С 21-го 12 UTC до 21-го 14 UTC
Ветер 8 Узел от восточно-юго-восточный

TAF: LUKK 202320Z 2100/2124 03006KT CAVOK BECMG 2112/2114 12008KT

Метеонаблюдения и прогнозы для более 4000 аэропортов (сводки METAR и TAF).

Имеющиеся станции представлены на карте желтыми и красными точками.

Чтобы увидеть название станции, наведите на нее мышь.

Затем щелкните, чтобы увидеть метеонаблюдения и метеопрогнозы.

Управление картой: чтобы увеличить масштаб, щелкните зеленые кнопки с черным крестиком; чтобы уменьшить масштаб, щелкните зеленую кнопку с тире; для просмотра соседних карт щелкайте зеленые стрелки.


METAR-TAF: